sensor_id;sensor_type;location;lat;lon;timestamp;P1;durP1;ratioP1;P2;durP2;ratioP2
7983;SDS011;4037;47.980;10.172;2023-05-10T00:00:08;0.83;;;0.83;;
7983;SDS011;4037;47.980;10.172;2023-05-10T00:02:34;1.00;;;0.90;;
7983;SDS011;4037;47.980;10.172;2023-05-10T00:05:01;0.90;;;0.90;;
7983;SDS011;4037;47.980;10.172;2023-05-10T00:07:26;0.70;;;0.70;;
7983;SDS011;4037;47.980;10.172;2023-05-10T00:09:53;1.07;;;1.00;;
7983;SDS011;4037;47.980;10.172;2023-05-10T00:12:19;1.33;;;0.90;;
7983;SDS011;4037;47.980;10.172;2023-05-10T00:14:45;1.00;;;1.00;;
7983;SDS011;4037;47.980;10.172;2023-05-10T00:17:11;1.67;;;0.87;;
7983;SDS011;4037;47.980;10.172;2023-05-10T00:19:37;1.70;;;0.70;;
7983;SDS011;4037;47.980;10.172;2023-05-10T00:22:03;1.17;;;0.80;;
7983;SDS011;4037;47.980;10.172;2023-05-10T00:24:29;1.47;;;0.80;;
7983;SDS011;4037;47.980;10.172;2023-05-10T00:26:55;0.70;;;0.70;;
7983;SDS011;4037;47.980;10.172;2023-05-10T00:29:21;0.70;;;0.70;;
7983;SDS011;4037;47.980;10.172;2023-05-10T00:31:47;1.23;;;0.80;;
7983;SDS011;4037;47.980;10.172;2023-05-10T00:34:12;0.80;;;0.80;;
7983;SDS011;4037;47.980;10.172;2023-05-10T00:36:38;1.10;;;0.90;;
7983;SDS011;4037;47.980;10.172;2023-05-10T00:39:05;0.70;;;0.70;;
7983;SDS011;4037;47.980;10.172;2023-05-10T00:41:31;0.80;;;0.80;;
7983;SDS011;4037;47.980;10.172;2023-05-10T00:43:57;1.67;;;0.80;;
7983;SDS011;4037;47.980;10.172;2023-05-10T00:46:23;0.90;;;0.80;;
7983;SDS011;4037;47.980;10.172;2023-05-10T00:48:50;0.80;;;0.80;;
7983;SDS011;4037;47.980;10.172;2023-05-10T00:51:16;1.00;;;0.90;;
7983;SDS011;4037;47.980;10.172;2023-05-10T00:53:43;1.90;;;0.80;;
7983;SDS011;4037;47.980;10.172;2023-05-10T00:56:09;1.70;;;0.60;;
7983;SDS011;4037;47.980;10.172;2023-05-10T00:58:35;1.13;;;0.80;;
7983;SDS011;4037;47.980;10.172;2023-05-10T01:01:01;1.77;;;0.70;;
7983;SDS011;4037;47.980;10.172;2023-05-10T01:03:28;1.50;;;0.70;;
7983;SDS011;4037;47.980;10.172;2023-05-10T01:05:54;1.00;;;0.80;;
7983;SDS011;4037;47.980;10.172;2023-05-10T01:08:20;0.70;;;0.70;;
7983;SDS011;4037;47.980;10.172;2023-05-10T01:10:46;0.60;;;0.60;;
7983;SDS011;4037;47.980;10.172;2023-05-10T01:13:14;1.07;;;0.70;;
7983;SDS011;4037;47.980;10.172;2023-05-10T01:15:44;1.30;;;0.80;;
7983;SDS011;4037;47.980;10.172;2023-05-10T01:18:11;0.80;;;0.80;;
7983;SDS011;4037;47.980;10.172;2023-05-10T01:20:40;0.70;;;0.70;;
7983;SDS011;4037;47.980;10.172;2023-05-10T01:26:03;2.00;;;0.80;;
7983;SDS011;4037;47.980;10.172;2023-05-10T01:33:49;3.40;;;0.90;;
7983;SDS011;4037;47.980;10.172;2023-05-10T01:36:19;1.80;;;0.87;;
7983;SDS011;4037;47.980;10.172;2023-05-10T01:44:18;0.70;;;0.70;;
7983;SDS011;4037;47.980;10.172;2023-05-10T01:46:48;0.80;;;0.80;;
7983;SDS011;4037;47.980;10.172;2023-05-10T01:49:21;0.83;;;0.83;;
7983;SDS011;4037;47.980;10.172;2023-05-10T01:51:50;1.00;;;0.90;;
7983;SDS011;4037;47.980;10.172;2023-05-10T01:54:17;0.70;;;0.70;;
7983;SDS011;4037;47.980;10.172;2023-05-10T01:56:45;1.80;;;0.73;;
7983;SDS011;4037;47.980;10.172;2023-05-10T01:59:14;0.80;;;0.80;;
7983;SDS011;4037;47.980;10.172;2023-05-10T02:01:41;0.73;;;0.73;;
7983;SDS011;4037;47.980;10.172;2023-05-10T02:04:07;0.80;;;0.80;;
7983;SDS011;4037;47.980;10.172;2023-05-10T02:06:34;0.90;;;0.90;;
7983;SDS011;4037;47.980;10.172;2023-05-10T02:09:01;1.17;;;1.07;;
7983;SDS011;4037;47.980;10.172;2023-05-10T02:11:27;0.90;;;0.90;;
7983;SDS011;4037;47.980;10.172;2023-05-10T02:13:54;0.90;;;0.90;;
7983;SDS011;4037;47.980;10.172;2023-05-10T02:16:21;1.67;;;0.80;;
7983;SDS011;4037;47.980;10.172;2023-05-10T02:18:49;1.30;;;0.90;;
7983;SDS011;4037;47.980;10.172;2023-05-10T02:21:16;0.80;;;0.80;;
7983;SDS011;4037;47.980;10.172;2023-05-10T02:23:43;1.23;;;0.80;;
7983;SDS011;4037;47.980;10.172;2023-05-10T02:26:09;0.67;;;0.67;;
7983;SDS011;4037;47.980;10.172;2023-05-10T02:28:36;0.73;;;0.73;;
7983;SDS011;4037;47.980;10.172;2023-05-10T02:31:03;0.70;;;0.70;;
7983;SDS011;4037;47.980;10.172;2023-05-10T02:33:29;1.97;;;1.00;;
7983;SDS011;4037;47.980;10.172;2023-05-10T02:35:56;1.00;;;0.90;;
7983;SDS011;4037;47.980;10.172;2023-05-10T02:38:22;0.63;;;0.60;;
7983;SDS011;4037;47.980;10.172;2023-05-10T02:40:48;1.57;;;0.90;;
7983;SDS011;4037;47.980;10.172;2023-05-10T02:43:14;0.87;;;0.87;;
7983;SDS011;4037;47.980;10.172;2023-05-10T02:45:41;2.60;;;1.10;;
7983;SDS011;4037;47.980;10.172;2023-05-10T02:48:08;1.40;;;1.30;;
7983;SDS011;4037;47.980;10.172;2023-05-10T02:50:35;1.20;;;1.20;;
7983;SDS011;4037;47.980;10.172;2023-05-10T02:53:03;1.13;;;1.13;;
7983;SDS011;4037;47.980;10.172;2023-05-10T02:55:33;1.00;;;1.00;;
7983;SDS011;4037;47.980;10.172;2023-05-10T02:58:01;0.90;;;0.90;;
7983;SDS011;4037;47.980;10.172;2023-05-10T03:00:27;0.90;;;0.90;;
7983;SDS011;4037;47.980;10.172;2023-05-10T03:02:54;1.00;;;1.00;;
7983;SDS011;4037;47.980;10.172;2023-05-10T03:05:20;1.53;;;1.30;;
7983;SDS011;4037;47.980;10.172;2023-05-10T03:07:46;1.30;;;1.20;;
7983;SDS011;4037;47.980;10.172;2023-05-10T03:10:12;2.57;;;1.40;;
7983;SDS011;4037;47.980;10.172;2023-05-10T03:12:57;1.97;;;1.10;;
7983;SDS011;4037;47.980;10.172;2023-05-10T03:18:18;3.40;;;1.10;;
7983;SDS011;4037;47.980;10.172;2023-05-10T03:20:47;2.73;;;1.00;;
7983;SDS011;4037;47.980;10.172;2023-05-10T03:25:52;2.47;;;1.37;;
7983;SDS011;4037;47.980;10.172;2023-05-10T03:28:19;1.40;;;1.30;;
7983;SDS011;4037;47.980;10.172;2023-05-10T03:30:46;2.57;;;1.43;;
7983;SDS011;4037;47.980;10.172;2023-05-10T03:33:12;1.40;;;1.30;;
7983;SDS011;4037;47.980;10.172;2023-05-10T03:35:39;2.10;;;1.50;;
7983;SDS011;4037;47.980;10.172;2023-05-10T03:38:05;2.43;;;1.90;;
7983;SDS011;4037;47.980;10.172;2023-05-10T03:40:31;2.00;;;1.90;;
7983;SDS011;4037;47.980;10.172;2023-05-10T03:42:57;1.83;;;1.67;;
7983;SDS011;4037;47.980;10.172;2023-05-10T03:45:23;2.07;;;1.97;;
7983;SDS011;4037;47.980;10.172;2023-05-10T03:47:49;2.83;;;1.93;;
7983;SDS011;4037;47.980;10.172;2023-05-10T03:50:16;1.90;;;1.80;;
7983;SDS011;4037;47.980;10.172;2023-05-10T03:52:43;1.70;;;1.60;;
7983;SDS011;4037;47.980;10.172;2023-05-10T03:55:09;1.70;;;1.60;;
7983;SDS011;4037;47.980;10.172;2023-05-10T03:57:35;1.50;;;1.40;;
7983;SDS011;4037;47.980;10.172;2023-05-10T04:00:02;1.70;;;1.60;;
7983;SDS011;4037;47.980;10.172;2023-05-10T04:02:28;2.13;;;1.60;;
7983;SDS011;4037;47.980;10.172;2023-05-10T04:04:55;2.37;;;1.60;;
7983;SDS011;4037;47.980;10.172;2023-05-10T04:07:21;2.20;;;1.40;;
7983;SDS011;4037;47.980;10.172;2023-05-10T04:09:47;1.87;;;1.70;;
7983;SDS011;4037;47.980;10.172;2023-05-10T04:12:13;1.67;;;1.50;;
7983;SDS011;4037;47.980;10.172;2023-05-10T04:14:39;2.37;;;1.43;;
7983;SDS011;4037;47.980;10.172;2023-05-10T04:17:05;2.10;;;1.70;;
7983;SDS011;4037;47.980;10.172;2023-05-10T04:19:31;1.83;;;1.73;;
7983;SDS011;4037;47.980;10.172;2023-05-10T04:21:57;1.87;;;1.77;;
7983;SDS011;4037;47.980;10.172;2023-05-10T04:24:23;1.37;;;1.27;;
7983;SDS011;4037;47.980;10.172;2023-05-10T04:26:49;1.60;;;1.40;;
7983;SDS011;4037;47.980;10.172;2023-05-10T04:29:15;2.50;;;1.43;;
7983;SDS011;4037;47.980;10.172;2023-05-10T04:31:41;1.70;;;1.60;;
7983;SDS011;4037;47.980;10.172;2023-05-10T04:34:07;2.87;;;1.87;;
7983;SDS011;4037;47.980;10.172;2023-05-10T04:36:33;1.97;;;1.87;;
7983;SDS011;4037;47.980;10.172;2023-05-10T04:39:01;1.73;;;1.63;;
7983;SDS011;4037;47.980;10.172;2023-05-10T04:41:30;2.30;;;2.10;;
7983;SDS011;4037;47.980;10.172;2023-05-10T04:43:57;1.80;;;1.70;;
7983;SDS011;4037;47.980;10.172;2023-05-10T04:46:23;2.00;;;1.70;;
7983;SDS011;4037;47.980;10.172;2023-05-10T04:48:49;2.90;;;1.87;;
7983;SDS011;4037;47.980;10.172;2023-05-10T04:51:15;2.00;;;1.57;;
7983;SDS011;4037;47.980;10.172;2023-05-10T04:53:41;1.97;;;1.60;;
7983;SDS011;4037;47.980;10.172;2023-05-10T04:56:07;2.60;;;1.97;;
7983;SDS011;4037;47.980;10.172;2023-05-10T04:58:33;2.00;;;1.90;;
7983;SDS011;4037;47.980;10.172;2023-05-10T05:01:08;1.87;;;1.77;;
7983;SDS011;4037;47.980;10.172;2023-05-10T05:03:35;2.07;;;1.90;;
7983;SDS011;4037;47.980;10.172;2023-05-10T05:06:01;3.63;;;2.03;;
7983;SDS011;4037;47.980;10.172;2023-05-10T05:08:27;2.30;;;1.67;;
7983;SDS011;4037;47.980;10.172;2023-05-10T05:10:53;2.10;;;1.90;;
7983;SDS011;4037;47.980;10.172;2023-05-10T05:13:19;3.20;;;2.20;;
7983;SDS011;4037;47.980;10.172;2023-05-10T05:15:45;2.53;;;1.80;;
7983;SDS011;4037;47.980;10.172;2023-05-10T05:18:11;3.90;;;2.00;;
7983;SDS011;4037;47.980;10.172;2023-05-10T05:20:37;2.40;;;2.20;;
7983;SDS011;4037;47.980;10.172;2023-05-10T05:23:03;2.60;;;2.00;;
7983;SDS011;4037;47.980;10.172;2023-05-10T05:25:29;2.90;;;2.67;;
7983;SDS011;4037;47.980;10.172;2023-05-10T05:27:55;2.70;;;2.50;;
7983;SDS011;4037;47.980;10.172;2023-05-10T05:30:21;2.80;;;2.60;;
7983;SDS011;4037;47.980;10.172;2023-05-10T05:32:47;2.77;;;2.50;;
7983;SDS011;4037;47.980;10.172;2023-05-10T05:35:13;4.23;;;2.77;;
7983;SDS011;4037;47.980;10.172;2023-05-10T05:37:39;3.30;;;3.00;;
7983;SDS011;4037;47.980;10.172;2023-05-10T05:40:05;3.30;;;3.00;;
7983;SDS011;4037;47.980;10.172;2023-05-10T05:42:32;4.10;;;2.80;;
7983;SDS011;4037;47.980;10.172;2023-05-10T05:44:58;3.27;;;2.53;;
7983;SDS011;4037;47.980;10.172;2023-05-10T05:47:24;3.40;;;3.10;;
7983;SDS011;4037;47.980;10.172;2023-05-10T05:49:50;3.77;;;2.70;;
7983;SDS011;4037;47.980;10.172;2023-05-10T05:52:16;2.90;;;2.70;;
7983;SDS011;4037;47.980;10.172;2023-05-10T05:54:42;4.53;;;2.90;;
7983;SDS011;4037;47.980;10.172;2023-05-10T05:57:08;2.90;;;2.70;;
7983;SDS011;4037;47.980;10.172;2023-05-10T05:59:34;2.97;;;1.83;;
7983;SDS011;4037;47.980;10.172;2023-05-10T06:02:00;2.10;;;1.90;;
7983;SDS011;4037;47.980;10.172;2023-05-10T06:04:26;2.03;;;1.93;;
7983;SDS011;4037;47.980;10.172;2023-05-10T06:06:53;2.33;;;2.13;;
7983;SDS011;4037;47.980;10.172;2023-05-10T06:09:19;2.67;;;1.90;;
7983;SDS011;4037;47.980;10.172;2023-05-10T06:11:45;3.87;;;2.67;;
7983;SDS011;4037;47.980;10.172;2023-05-10T06:14:11;3.50;;;2.50;;
7983;SDS011;4037;47.980;10.172;2023-05-10T06:16:37;2.90;;;2.30;;
7983;SDS011;4037;47.980;10.172;2023-05-10T06:19:03;4.77;;;2.57;;
7983;SDS011;4037;47.980;10.172;2023-05-10T06:21:29;2.87;;;2.67;;
7983;SDS011;4037;47.980;10.172;2023-05-10T06:23:55;3.37;;;1.90;;
7983;SDS011;4037;47.980;10.172;2023-05-10T06:26:21;3.47;;;2.17;;
7983;SDS011;4037;47.980;10.172;2023-05-10T06:28:47;3.07;;;1.67;;
7983;SDS011;4037;47.980;10.172;2023-05-10T06:31:13;2.00;;;1.87;;
7983;SDS011;4037;47.980;10.172;2023-05-10T06:33:39;2.63;;;1.90;;
7983;SDS011;4037;47.980;10.172;2023-05-10T06:36:05;3.47;;;2.40;;
7983;SDS011;4037;47.980;10.172;2023-05-10T06:38:31;2.30;;;2.10;;
7983;SDS011;4037;47.980;10.172;2023-05-10T06:40:58;2.60;;;2.40;;
7983;SDS011;4037;47.980;10.172;2023-05-10T06:43:24;2.10;;;2.00;;
7983;SDS011;4037;47.980;10.172;2023-05-10T06:45:51;2.27;;;2.07;;
7983;SDS011;4037;47.980;10.172;2023-05-10T06:48:17;2.47;;;2.27;;
7983;SDS011;4037;47.980;10.172;2023-05-10T06:50:43;4.03;;;2.37;;
7983;SDS011;4037;47.980;10.172;2023-05-10T06:53:09;2.73;;;2.53;;
7983;SDS011;4037;47.980;10.172;2023-05-10T06:55:37;2.30;;;2.10;;
7983;SDS011;4037;47.980;10.172;2023-05-10T06:58:03;3.13;;;2.50;;
7983;SDS011;4037;47.980;10.172;2023-05-10T07:00:29;4.90;;;3.03;;
7983;SDS011;4037;47.980;10.172;2023-05-10T07:02:55;3.57;;;2.70;;
7983;SDS011;4037;47.980;10.172;2023-05-10T07:05:21;2.03;;;1.93;;
7983;SDS011;4037;47.980;10.172;2023-05-10T07:07:47;2.00;;;1.90;;
7983;SDS011;4037;47.980;10.172;2023-05-10T07:10:13;3.43;;;2.53;;
7983;SDS011;4037;47.980;10.172;2023-05-10T07:12:39;1.90;;;1.80;;
7983;SDS011;4037;47.980;10.172;2023-05-10T07:15:05;2.43;;;2.23;;
7983;SDS011;4037;47.980;10.172;2023-05-10T07:17:31;2.60;;;2.40;;
7983;SDS011;4037;47.980;10.172;2023-05-10T07:19:58;3.23;;;2.37;;
7983;SDS011;4037;47.980;10.172;2023-05-10T07:22:25;2.10;;;2.00;;
7983;SDS011;4037;47.980;10.172;2023-05-10T07:24:51;2.20;;;1.87;;
7983;SDS011;4037;47.980;10.172;2023-05-10T07:27:17;2.23;;;2.03;;
7983;SDS011;4037;47.980;10.172;2023-05-10T07:29:43;2.93;;;2.10;;
7983;SDS011;4037;47.980;10.172;2023-05-10T07:32:09;2.33;;;2.13;;
7983;SDS011;4037;47.980;10.172;2023-05-10T07:34:35;2.60;;;2.30;;
7983;SDS011;4037;47.980;10.172;2023-05-10T07:37:01;1.93;;;1.70;;
7983;SDS011;4037;47.980;10.172;2023-05-10T07:39:27;2.80;;;1.70;;
7983;SDS011;4037;47.980;10.172;2023-05-10T07:41:53;2.07;;;1.93;;
7983;SDS011;4037;47.980;10.172;2023-05-10T07:44:19;1.80;;;1.43;;
7983;SDS011;4037;47.980;10.172;2023-05-10T07:46:46;1.40;;;1.30;;
7983;SDS011;4037;47.980;10.172;2023-05-10T07:49:12;1.70;;;1.60;;
7983;SDS011;4037;47.980;10.172;2023-05-10T07:51:38;1.67;;;1.57;;
7983;SDS011;4037;47.980;10.172;2023-05-10T07:54:04;1.77;;;1.67;;
7983;SDS011;4037;47.980;10.172;2023-05-10T07:56:31;2.87;;;1.93;;
7983;SDS011;4037;47.980;10.172;2023-05-10T07:58:58;1.40;;;1.30;;
7983;SDS011;4037;47.980;10.172;2023-05-10T08:01:24;2.37;;;1.80;;
7983;SDS011;4037;47.980;10.172;2023-05-10T08:03:51;1.93;;;1.50;;
7983;SDS011;4037;47.980;10.172;2023-05-10T08:06:18;1.60;;;1.50;;
7983;SDS011;4037;47.980;10.172;2023-05-10T08:08:47;2.47;;;1.90;;
7983;SDS011;4037;47.980;10.172;2023-05-10T08:11:18;2.30;;;1.20;;
7983;SDS011;4037;47.980;10.172;2023-05-10T08:13:45;4.10;;;1.70;;
7983;SDS011;4037;47.980;10.172;2023-05-10T08:16:11;3.40;;;1.80;;
7983;SDS011;4037;47.980;10.172;2023-05-10T08:18:37;1.87;;;1.73;;
7983;SDS011;4037;47.980;10.172;2023-05-10T08:21:04;1.90;;;1.70;;
7983;SDS011;4037;47.980;10.172;2023-05-10T08:23:30;1.97;;;1.83;;
7983;SDS011;4037;47.980;10.172;2023-05-10T08:25:56;2.33;;;1.50;;
7983;SDS011;4037;47.980;10.172;2023-05-10T08:28:22;1.87;;;1.60;;
7983;SDS011;4037;47.980;10.172;2023-05-10T08:30:49;1.40;;;1.30;;
7983;SDS011;4037;47.980;10.172;2023-05-10T08:33:15;1.63;;;1.40;;
7983;SDS011;4037;47.980;10.172;2023-05-10T08:35:41;2.30;;;1.60;;
7983;SDS011;4037;47.980;10.172;2023-05-10T08:38:07;1.33;;;1.23;;
7983;SDS011;4037;47.980;10.172;2023-05-10T08:40:33;1.70;;;1.17;;
7983;SDS011;4037;47.980;10.172;2023-05-10T08:45:27;1.60;;;1.30;;
7983;SDS011;4037;47.980;10.172;2023-05-10T08:47:57;1.43;;;1.20;;
7983;SDS011;4037;47.980;10.172;2023-05-10T08:50:23;1.40;;;1.30;;
7983;SDS011;4037;47.980;10.172;2023-05-10T08:52:50;1.30;;;1.13;;
7983;SDS011;4037;47.980;10.172;2023-05-10T08:55:18;2.33;;;1.50;;
7983;SDS011;4037;47.980;10.172;2023-05-10T08:57:44;1.33;;;1.23;;
7983;SDS011;4037;47.980;10.172;2023-05-10T09:00:11;1.60;;;1.30;;
7983;SDS011;4037;47.980;10.172;2023-05-10T09:02:37;1.43;;;1.20;;
7983;SDS011;4037;47.980;10.172;2023-05-10T09:05:03;1.37;;;1.27;;
7983;SDS011;4037;47.980;10.172;2023-05-10T09:07:29;2.63;;;1.10;;
7983;SDS011;4037;47.980;10.172;2023-05-10T09:09:56;1.97;;;1.20;;
7983;SDS011;4037;47.980;10.172;2023-05-10T09:12:22;1.27;;;1.17;;
7983;SDS011;4037;47.980;10.172;2023-05-10T09:14:49;2.37;;;1.30;;
7983;SDS011;4037;47.980;10.172;2023-05-10T09:17:16;1.50;;;1.40;;
7983;SDS011;4037;47.980;10.172;2023-05-10T09:19:42;1.30;;;1.20;;
7983;SDS011;4037;47.980;10.172;2023-05-10T09:22:11;1.30;;;1.20;;
7983;SDS011;4037;47.980;10.172;2023-05-10T09:24:38;2.30;;;1.37;;
7983;SDS011;4037;47.980;10.172;2023-05-10T09:27:07;2.20;;;1.30;;
7983;SDS011;4037;47.980;10.172;2023-05-10T09:29:40;1.20;;;1.10;;
7983;SDS011;4037;47.980;10.172;2023-05-10T09:32:05;1.13;;;1.00;;
7983;SDS011;4037;47.980;10.172;2023-05-10T09:34:32;1.43;;;1.30;;
7983;SDS011;4037;47.980;10.172;2023-05-10T09:37:01;2.30;;;1.63;;
7983;SDS011;4037;47.980;10.172;2023-05-10T09:39:31;2.53;;;1.27;;
7983;SDS011;4037;47.980;10.172;2023-05-10T09:41:57;2.30;;;1.23;;
7983;SDS011;4037;47.980;10.172;2023-05-10T09:44:25;3.20;;;1.40;;
7983;SDS011;4037;47.980;10.172;2023-05-10T09:46:51;3.27;;;1.50;;
7983;SDS011;4037;47.980;10.172;2023-05-10T09:49:20;1.67;;;1.57;;
7983;SDS011;4037;47.980;10.172;2023-05-10T09:51:47;1.60;;;1.50;;
7983;SDS011;4037;47.980;10.172;2023-05-10T09:54:14;3.30;;;1.50;;
7983;SDS011;4037;47.980;10.172;2023-05-10T09:56:41;2.47;;;1.60;;
7983;SDS011;4037;47.980;10.172;2023-05-10T09:59:10;2.37;;;1.60;;
7983;SDS011;4037;47.980;10.172;2023-05-10T10:01:37;1.97;;;1.50;;
7983;SDS011;4037;47.980;10.172;2023-05-10T10:04:04;2.37;;;1.63;;
7983;SDS011;4037;47.980;10.172;2023-05-10T10:06:34;2.73;;;1.93;;
7983;SDS011;4037;47.980;10.172;2023-05-10T10:09:00;1.77;;;1.40;;
7983;SDS011;4037;47.980;10.172;2023-05-10T10:11:26;1.33;;;1.23;;
7983;SDS011;4037;47.980;10.172;2023-05-10T10:13:52;3.47;;;1.50;;
7983;SDS011;4037;47.980;10.172;2023-05-10T10:16:18;2.10;;;1.90;;
7983;SDS011;4037;47.980;10.172;2023-05-10T10:18:45;2.47;;;1.80;;
7983;SDS011;4037;47.980;10.172;2023-05-10T10:21:12;1.60;;;1.37;;
7983;SDS011;4037;47.980;10.172;2023-05-10T10:23:39;3.40;;;2.40;;
7983;SDS011;4037;47.980;10.172;2023-05-10T10:26:05;1.57;;;1.47;;
7983;SDS011;4037;47.980;10.172;2023-05-10T10:28:40;4.13;;;1.67;;
7983;SDS011;4037;47.980;10.172;2023-05-10T10:31:13;2.50;;;1.83;;
7983;SDS011;4037;47.980;10.172;2023-05-10T10:36:27;1.70;;;1.60;;
7983;SDS011;4037;47.980;10.172;2023-05-10T10:41:31;2.53;;;1.80;;
7983;SDS011;4037;47.980;10.172;2023-05-10T10:47:00;1.77;;;1.60;;
7983;SDS011;4037;47.980;10.172;2023-05-10T10:49:27;2.80;;;1.70;;
7983;SDS011;4037;47.980;10.172;2023-05-10T10:54:38;1.43;;;1.33;;
7983;SDS011;4037;47.980;10.172;2023-05-10T10:57:14;2.43;;;1.40;;
7983;SDS011;4037;47.980;10.172;2023-05-10T10:59:43;1.83;;;1.20;;
7983;SDS011;4037;47.980;10.172;2023-05-10T11:02:09;1.60;;;1.30;;
7983;SDS011;4037;47.980;10.172;2023-05-10T11:04:42;1.10;;;1.03;;
7983;SDS011;4037;47.980;10.172;2023-05-10T11:07:17;1.57;;;1.20;;
7983;SDS011;4037;47.980;10.172;2023-05-10T11:09:43;0.90;;;0.90;;
7983;SDS011;4037;47.980;10.172;2023-05-10T11:12:10;2.60;;;1.30;;
7983;SDS011;4037;47.980;10.172;2023-05-10T11:14:36;1.43;;;1.20;;
7983;SDS011;4037;47.980;10.172;2023-05-10T11:17:02;2.57;;;1.03;;
7983;SDS011;4037;47.980;10.172;2023-05-10T11:20:06;2.40;;;1.10;;
7983;SDS011;4037;47.980;10.172;2023-05-10T11:22:48;0.80;;;0.80;;
7983;SDS011;4037;47.980;10.172;2023-05-10T11:25:15;1.80;;;0.83;;
7983;SDS011;4037;47.980;10.172;2023-05-10T11:27:41;0.93;;;0.83;;
7983;SDS011;4037;47.980;10.172;2023-05-10T11:30:09;1.93;;;0.93;;
7983;SDS011;4037;47.980;10.172;2023-05-10T11:32:39;1.00;;;0.90;;
7983;SDS011;4037;47.980;10.172;2023-05-10T11:35:08;1.10;;;1.00;;
7983;SDS011;4037;47.980;10.172;2023-05-10T11:37:35;0.80;;;0.80;;
7983;SDS011;4037;47.980;10.172;2023-05-10T11:40:01;1.17;;;1.07;;
7983;SDS011;4037;47.980;10.172;2023-05-10T11:42:28;1.10;;;1.00;;
7983;SDS011;4037;47.980;10.172;2023-05-10T11:44:55;1.70;;;1.10;;
7983;SDS011;4037;47.980;10.172;2023-05-10T11:47:21;1.77;;;0.93;;
7983;SDS011;4037;47.980;10.172;2023-05-10T11:49:47;1.10;;;0.93;;
7983;SDS011;4037;47.980;10.172;2023-05-10T11:52:13;0.80;;;0.80;;
7983;SDS011;4037;47.980;10.172;2023-05-10T11:54:52;2.83;;;1.17;;
7983;SDS011;4037;47.980;10.172;2023-05-10T11:57:19;1.87;;;1.20;;
7983;SDS011;4037;47.980;10.172;2023-05-10T11:59:45;1.43;;;0.90;;
7983;SDS011;4037;47.980;10.172;2023-05-10T12:02:13;1.07;;;0.90;;
7983;SDS011;4037;47.980;10.172;2023-05-10T12:04:39;1.53;;;0.90;;
7983;SDS011;4037;47.980;10.172;2023-05-10T12:07:05;1.30;;;1.20;;
7983;SDS011;4037;47.980;10.172;2023-05-10T12:09:31;3.03;;;1.83;;
7983;SDS011;4037;47.980;10.172;2023-05-10T12:11:57;1.87;;;0.80;;
7983;SDS011;4037;47.980;10.172;2023-05-10T12:14:23;1.03;;;0.90;;
7983;SDS011;4037;47.980;10.172;2023-05-10T12:16:49;0.80;;;0.80;;
7983;SDS011;4037;47.980;10.172;2023-05-10T12:19:18;1.13;;;1.03;;
7983;SDS011;4037;47.980;10.172;2023-05-10T12:21:48;1.97;;;1.17;;
7983;SDS011;4037;47.980;10.172;2023-05-10T12:24:14;1.63;;;1.13;;
7983;SDS011;4037;47.980;10.172;2023-05-10T12:26:44;1.13;;;0.97;;
7983;SDS011;4037;47.980;10.172;2023-05-10T12:29:11;1.20;;;1.10;;
7983;SDS011;4037;47.980;10.172;2023-05-10T12:31:54;1.20;;;1.00;;
7983;SDS011;4037;47.980;10.172;2023-05-10T12:36:52;1.70;;;1.10;;
7983;SDS011;4037;47.980;10.172;2023-05-10T12:39:18;1.70;;;0.93;;
7983;SDS011;4037;47.980;10.172;2023-05-10T12:41:44;1.20;;;1.10;;
7983;SDS011;4037;47.980;10.172;2023-05-10T12:44:10;1.27;;;1.17;;
7983;SDS011;4037;47.980;10.172;2023-05-10T12:46:36;1.20;;;1.10;;
7983;SDS011;4037;47.980;10.172;2023-05-10T12:49:02;1.33;;;1.20;;
7983;SDS011;4037;47.980;10.172;2023-05-10T12:51:28;1.50;;;1.10;;
7983;SDS011;4037;47.980;10.172;2023-05-10T12:53:55;1.40;;;1.10;;
7983;SDS011;4037;47.980;10.172;2023-05-10T12:56:21;0.90;;;0.90;;
7983;SDS011;4037;47.980;10.172;2023-05-10T12:58:47;4.10;;;1.30;;
7983;SDS011;4037;47.980;10.172;2023-05-10T13:01:13;2.87;;;1.33;;
7983;SDS011;4037;47.980;10.172;2023-05-10T13:03:40;1.53;;;1.20;;
7983;SDS011;4037;47.980;10.172;2023-05-10T13:06:06;2.13;;;1.33;;
7983;SDS011;4037;47.980;10.172;2023-05-10T13:08:32;1.87;;;1.20;;
7983;SDS011;4037;47.980;10.172;2023-05-10T13:10:59;1.30;;;1.20;;
7983;SDS011;4037;47.980;10.172;2023-05-10T13:13:25;2.67;;;1.40;;
7983;SDS011;4037;47.980;10.172;2023-05-10T13:15:51;2.20;;;1.40;;
7983;SDS011;4037;47.980;10.172;2023-05-10T13:18:17;1.50;;;1.27;;
7983;SDS011;4037;47.980;10.172;2023-05-10T13:20:43;2.10;;;1.40;;
7983;SDS011;4037;47.980;10.172;2023-05-10T13:23:09;1.70;;;1.60;;
7983;SDS011;4037;47.980;10.172;2023-05-10T13:25:35;2.17;;;1.77;;
7983;SDS011;4037;47.980;10.172;2023-05-10T13:28:02;2.73;;;1.73;;
7983;SDS011;4037;47.980;10.172;2023-05-10T13:30:28;1.47;;;1.37;;
7983;SDS011;4037;47.980;10.172;2023-05-10T13:32:54;1.40;;;1.10;;
7983;SDS011;4037;47.980;10.172;2023-05-10T13:35:20;2.00;;;1.17;;
7983;SDS011;4037;47.980;10.172;2023-05-10T13:37:46;2.07;;;1.43;;
7983;SDS011;4037;47.980;10.172;2023-05-10T13:40:12;1.70;;;1.30;;
7983;SDS011;4037;47.980;10.172;2023-05-10T13:42:40;1.40;;;1.30;;
7983;SDS011;4037;47.980;10.172;2023-05-10T13:45:06;2.43;;;1.50;;
7983;SDS011;4037;47.980;10.172;2023-05-10T13:47:32;1.87;;;1.40;;
7983;SDS011;4037;47.980;10.172;2023-05-10T13:49:58;2.13;;;1.30;;
7983;SDS011;4037;47.980;10.172;2023-05-10T13:52:25;1.50;;;1.40;;
7983;SDS011;4037;47.980;10.172;2023-05-10T13:54:51;1.50;;;1.40;;
7983;SDS011;4037;47.980;10.172;2023-05-10T13:57:20;1.30;;;1.20;;
7983;SDS011;4037;47.980;10.172;2023-05-10T13:59:46;3.00;;;1.67;;
7983;SDS011;4037;47.980;10.172;2023-05-10T14:02:12;1.50;;;1.30;;
7983;SDS011;4037;47.980;10.172;2023-05-10T14:04:38;2.07;;;1.13;;
7983;SDS011;4037;47.980;10.172;2023-05-10T14:07:04;1.30;;;1.20;;
7983;SDS011;4037;47.980;10.172;2023-05-10T14:09:30;2.57;;;1.50;;
7983;SDS011;4037;47.980;10.172;2023-05-10T14:11:56;2.50;;;1.17;;
7983;SDS011;4037;47.980;10.172;2023-05-10T14:14:22;2.50;;;1.50;;
7983;SDS011;4037;47.980;10.172;2023-05-10T14:16:48;2.03;;;1.33;;
7983;SDS011;4037;47.980;10.172;2023-05-10T14:19:14;1.60;;;1.20;;
7983;SDS011;4037;47.980;10.172;2023-05-10T14:21:40;1.37;;;1.27;;
7983;SDS011;4037;47.980;10.172;2023-05-10T14:24:06;1.63;;;1.17;;
7983;SDS011;4037;47.980;10.172;2023-05-10T14:26:32;1.40;;;1.30;;
7983;SDS011;4037;47.980;10.172;2023-05-10T14:28:59;3.73;;;1.40;;
7983;SDS011;4037;47.980;10.172;2023-05-10T14:31:25;1.40;;;1.30;;
7983;SDS011;4037;47.980;10.172;2023-05-10T14:33:52;1.43;;;1.30;;
7983;SDS011;4037;47.980;10.172;2023-05-10T14:36:18;2.73;;;1.20;;
7983;SDS011;4037;47.980;10.172;2023-05-10T14:38:44;1.47;;;1.33;;
7983;SDS011;4037;47.980;10.172;2023-05-10T14:41:10;1.47;;;1.37;;
7983;SDS011;4037;47.980;10.172;2023-05-10T14:43:40;1.93;;;1.73;;
7983;SDS011;4037;47.980;10.172;2023-05-10T14:46:06;2.53;;;1.60;;
7983;SDS011;4037;47.980;10.172;2023-05-10T14:48:32;1.97;;;1.47;;
7983;SDS011;4037;47.980;10.172;2023-05-10T14:50:58;5.10;;;2.70;;
7983;SDS011;4037;47.980;10.172;2023-05-10T14:53:24;1.93;;;1.67;;
7983;SDS011;4037;47.980;10.172;2023-05-10T14:55:50;2.57;;;1.50;;
7983;SDS011;4037;47.980;10.172;2023-05-10T14:58:16;3.17;;;2.00;;
7983;SDS011;4037;47.980;10.172;2023-05-10T15:00:42;6.03;;;2.00;;
7983;SDS011;4037;47.980;10.172;2023-05-10T15:03:08;3.97;;;1.70;;
7983;SDS011;4037;47.980;10.172;2023-05-10T15:05:34;1.87;;;1.40;;
7983;SDS011;4037;47.980;10.172;2023-05-10T15:08:02;2.40;;;1.40;;
7983;SDS011;4037;47.980;10.172;2023-05-10T15:10:29;1.27;;;1.17;;
7983;SDS011;4037;47.980;10.172;2023-05-10T15:12:55;1.97;;;1.50;;
7983;SDS011;4037;47.980;10.172;2023-05-10T15:15:21;1.60;;;1.47;;
7983;SDS011;4037;47.980;10.172;2023-05-10T15:17:47;2.13;;;1.47;;
7983;SDS011;4037;47.980;10.172;2023-05-10T15:20:13;2.60;;;1.70;;
7983;SDS011;4037;47.980;10.172;2023-05-10T15:22:39;3.63;;;1.80;;
7983;SDS011;4037;47.980;10.172;2023-05-10T15:25:06;2.10;;;1.90;;
7983;SDS011;4037;47.980;10.172;2023-05-10T15:27:32;2.50;;;1.80;;
7983;SDS011;4037;47.980;10.172;2023-05-10T15:29:58;3.00;;;1.87;;
7983;SDS011;4037;47.980;10.172;2023-05-10T15:32:24;3.33;;;1.70;;